Time;durP1;ratioP1;P1;durP2;ratioP2;P2;SDS_P1;SDS_P2;PMS_P1;PMS_P2;Temp;Humidity;BMP_temperature;BMP_pressure;BME280_temperature;BME280_humidity;BME280_pressure;Samples;Min_cycle;Max_cycle;Signal;HPM_P1;HPM_P2
2023/12/10 00:00:46;;;;;;;17.17;2.55;;;9.00;99.90;;;;;;5046115;28;20504;-78
2023/12/10 00:03:12;;;;;;;19.83;2.40;;;9.00;99.90;;;;;;5049392;28;20041;-78
2023/12/10 00:05:38;;;;;;;20.45;3.05;;;8.90;99.90;;;;;;5047629;28;20056;-78
2023/12/10 00:08:03;;;;;;;32.03;4.47;;;8.90;99.90;;;;;;5045791;28;20052;-78
2023/12/10 00:10:29;;;;;;;16.90;2.58;;;8.80;99.90;;;;;;5039289;28;20064;-78
2023/12/10 00:12:55;;;;;;;14.27;3.72;;;8.80;99.90;;;;;;5046157;28;20069;-78
2023/12/10 00:15:20;;;;;;;20.95;2.60;;;8.80;99.90;;;;;;5044060;28;20115;-78
2023/12/10 00:17:46;;;;;;;17.67;2.75;;;8.70;99.90;;;;;;5039889;28;20450;-78
2023/12/10 00:20:12;;;;;;;21.20;3.30;;;8.70;99.90;;;;;;5045333;28;20076;-78
2023/12/10 00:22:38;;;;;;;16.55;2.28;;;8.60;99.90;;;;;;5043845;28;20072;-78
2023/12/10 00:25:04;;;;;;;18.98;2.45;;;8.70;99.90;;;;;;5042389;28;20139;-78
2023/12/10 00:27:29;;;;;;;16.90;2.55;;;8.60;99.90;;;;;;5045258;28;20072;-78
2023/12/10 00:29:55;;;;;;;18.92;3.10;;;8.70;99.90;;;;;;5040974;28;20076;-78
2023/12/10 00:32:21;;;;;;;19.27;2.85;;;8.60;99.90;;;;;;5040184;28;20477;-78
2023/12/10 00:34:46;;;;;;;20.42;3.13;;;8.60;99.90;;;;;;5041718;28;20087;-78
2023/12/10 00:37:12;;;;;;;20.13;3.13;;;8.70;99.90;;;;;;5046478;28;20057;-78
2023/12/10 00:39:38;;;;;;;22.23;3.58;;;8.70;99.90;;;;;;5045128;28;20049;-78
2023/12/10 00:42:04;;;;;;;21.15;3.63;;;8.70;99.90;;;;;;5044278;28;20041;-78
2023/12/10 00:44:29;;;;;;;18.83;3.05;;;8.70;99.90;;;;;;5046157;28;20076;-78
2023/12/10 00:46:55;;;;;;;22.63;4.55;;;8.70;99.90;;;;;;5044009;28;20076;-79
2023/12/10 00:49:21;;;;;;;16.70;3.03;;;8.70;99.90;;;;;;5045473;28;20059;-78
2023/12/10 00:51:46;;;;;;;24.33;2.78;;;8.70;99.90;;;;;;5041091;28;20052;-79
2023/12/10 00:54:12;;;;;;;19.95;2.97;;;8.70;99.90;;;;;;5043154;28;20469;-78
2023/12/10 00:56:38;;;;;;;17.15;3.30;;;8.70;99.90;;;;;;5045063;28;20053;-78
2023/12/10 00:59:03;;;;;;;18.65;2.75;;;8.70;99.90;;;;;;5045146;28;20048;-78
2023/12/10 01:01:29;;;;;;;16.58;3.15;;;8.70;99.90;;;;;;5044218;28;20447;-78
2023/12/10 01:03:55;;;;;;;13.98;2.58;;;8.70;99.90;;;;;;5043402;28;20057;-78
2023/12/10 01:06:20;;;;;;;21.70;3.22;;;8.70;99.90;;;;;;5046270;28;20459;-78
2023/12/10 01:08:46;;;;;;;17.08;3.10;;;8.70;99.90;;;;;;5039432;28;20049;-79
2023/12/10 01:11:12;;;;;;;18.88;3.55;;;8.70;99.90;;;;;;5047715;28;20064;-79
2023/12/10 01:13:37;;;;;;;20.85;3.50;;;8.70;99.90;;;;;;5046058;28;20060;-77
2023/12/10 01:16:04;;;;;;;13.93;2.30;;;8.70;99.90;;;;;;5047019;28;20381;-77
2023/12/10 01:18:32;;;;;;;16.98;2.75;;;8.70;99.90;;;;;;5041696;28;20049;-77
2023/12/10 01:20:58;;;;;;;17.02;2.40;;;8.60;99.90;;;;;;5040484;28;20041;-77
2023/12/10 01:23:24;;;;;;;21.52;3.45;;;8.60;99.90;;;;;;5049358;28;20044;-77
2023/12/10 01:25:50;;;;;;;15.02;2.55;;;8.60;99.90;;;;;;5047317;28;20128;-78
2023/12/10 01:28:15;;;;;;;19.60;3.58;;;8.60;99.90;;;;;;5046223;28;20036;-77
2023/12/10 01:30:41;;;;;;;17.02;3.00;;;8.50;99.90;;;;;;5052936;28;20044;-77
2023/12/10 01:33:07;;;;;;;18.85;3.28;;;8.50;99.90;;;;;;5043382;28;20077;-77
2023/12/10 01:35:33;;;;;;;15.52;2.35;;;8.40;99.90;;;;;;5046708;28;20036;-78
2023/12/10 01:37:59;;;;;;;15.38;2.45;;;8.40;99.90;;;;;;5042871;28;20041;-78
2023/12/10 01:40:25;;;;;;;14.10;2.60;;;8.40;99.90;;;;;;5051362;28;20110;-78
2023/12/10 01:42:51;;;;;;;11.10;2.10;;;8.40;99.90;;;;;;5048342;28;20404;-77
2023/12/10 01:45:20;;;;;;;20.13;3.00;;;8.30;99.90;;;;;;5066688;28;20064;-77
2023/12/10 01:47:51;;;;;;;13.50;2.20;;;8.30;99.90;;;;;;5047704;28;20051;-77
2023/12/10 01:50:19;;;;;;;16.85;3.15;;;8.30;99.90;;;;;;5035944;28;21468;-77
2023/12/10 01:52:47;;;;;;;12.70;2.03;;;8.30;99.90;;;;;;5047589;28;20416;-78
2023/12/10 01:55:14;;;;;;;14.82;2.42;;;8.20;99.90;;;;;;5043728;28;20041;-77
2023/12/10 01:57:39;;;;;;;12.45;2.83;;;8.30;99.90;;;;;;5045558;28;20068;-77
2023/12/10 02:00:06;;;;;;;16.13;2.75;;;8.30;99.90;;;;;;5045142;28;20077;-77
2023/12/10 02:02:36;;;;;;;11.97;2.17;;;8.20;99.90;;;;;;5047348;28;20053;-77
2023/12/10 02:05:07;;;;;;;18.02;3.28;;;8.20;99.90;;;;;;5047569;28;20349;-78
2023/12/10 02:07:33;;;;;;;17.77;3.00;;;8.20;99.90;;;;;;5048040;28;20044;-77
2023/12/10 02:09:59;;;;;;;15.43;2.40;;;8.20;99.90;;;;;;5044362;28;20059;-77
2023/12/10 02:12:27;;;;;;;17.85;2.58;;;8.20;99.90;;;;;;5049392;28;20061;-77
2023/12/10 02:14:53;;;;;;;15.32;2.42;;;8.20;99.90;;;;;;5046698;28;20048;-77
2023/12/10 02:17:19;;;;;;;18.50;3.00;;;8.10;99.90;;;;;;5043790;28;20060;-77
2023/12/10 02:19:44;;;;;;;19.08;2.65;;;8.20;99.90;;;;;;5045541;28;20882;-77
2023/12/10 02:22:13;;;;;;;14.02;2.78;;;8.10;99.90;;;;;;5045809;28;20052;-77
2023/12/10 02:24:49;;;;;;;10.90;2.40;;;8.20;99.90;;;;;;5042035;28;20089;-77
2023/12/10 02:27:15;;;;;;;18.83;2.70;;;8.10;99.90;;;;;;5047417;28;20048;-77
2023/12/10 02:29:41;;;;;;;13.90;1.92;;;8.10;99.90;;;;;;5043708;28;20056;-77
2023/12/10 02:32:07;;;;;;;19.20;3.47;;;8.10;99.90;;;;;;5051609;28;20589;-77
2023/12/10 02:34:33;;;;;;;16.15;2.40;;;8.10;99.90;;;;;;5046157;28;20130;-77
2023/12/10 02:36:58;;;;;;;16.40;3.22;;;8.10;99.90;;;;;;5040814;28;20511;-77
2023/12/10 02:39:24;;;;;;;17.10;2.72;;;8.10;99.90;;;;;;5036810;28;20620;-77
2023/12/10 02:41:50;;;;;;;15.15;2.75;;;8.10;99.90;;;;;;5045314;28;20702;-77
2023/12/10 02:44:15;;;;;;;15.23;2.92;;;8.10;99.90;;;;;;5044923;28;20053;-77
2023/12/10 02:46:47;;;;;;;19.58;3.85;;;8.10;99.90;;;;;;5033223;28;20079;-77
2023/12/10 02:49:13;;;;;;;17.33;3.28;;;8.10;99.90;;;;;;5040718;28;20033;-77
2023/12/10 02:51:38;;;;;;;11.80;2.97;;;8.10;99.90;;;;;;5044068;28;20052;-77
2023/12/10 02:54:04;;;;;;;18.10;3.67;;;8.10;99.90;;;;;;5051887;28;20131;-77
2023/12/10 02:56:30;;;;;;;15.18;2.40;;;8.10;99.90;;;;;;5054011;28;20071;-77
2023/12/10 02:58:55;;;;;;;16.75;2.55;;;8.10;99.90;;;;;;5050042;28;20053;-77
2023/12/10 03:01:21;;;;;;;21.80;3.17;;;8.10;99.90;;;;;;5047218;28;20640;-77
2023/12/10 03:03:47;;;;;;;16.40;2.55;;;8.00;99.90;;;;;;5043882;28;20160;-77
2023/12/10 03:06:12;;;;;;;19.00;2.58;;;8.10;99.90;;;;;;5046882;28;20033;-77
2023/12/10 03:08:38;;;;;;;15.70;3.08;;;8.10;99.90;;;;;;5044365;28;20053;-77
2023/12/10 03:11:04;;;;;;;21.65;3.35;;;8.00;99.90;;;;;;5047086;28;20176;-77
2023/12/10 03:13:30;;;;;;;17.30;3.20;;;8.10;99.90;;;;;;5040542;28;20087;-77
2023/12/10 03:15:55;;;;;;;10.60;2.67;;;8.10;99.90;;;;;;5050747;28;20409;-77
2023/12/10 03:18:21;;;;;;;22.77;2.97;;;8.00;99.90;;;;;;5050938;28;20037;-77
2023/12/10 03:20:47;;;;;;;16.73;3.22;;;8.10;99.90;;;;;;5050761;28;20506;-77
2023/12/10 03:23:12;;;;;;;14.05;2.60;;;8.00;99.90;;;;;;5051586;28;20048;-77
2023/12/10 03:25:38;;;;;;;20.15;2.83;;;8.10;99.90;;;;;;5048200;28;20041;-77
2023/12/10 03:28:04;;;;;;;17.65;3.05;;;8.10;99.90;;;;;;5052132;28;20182;-77
2023/12/10 03:30:29;;;;;;;19.13;3.97;;;8.00;99.90;;;;;;5052367;28;20408;-76
2023/12/10 03:32:55;;;;;;;13.43;2.75;;;8.00;99.90;;;;;;5044609;28;20411;-77
2023/12/10 03:35:21;;;;;;;13.57;2.78;;;8.00;99.90;;;;;;5042722;28;20048;-77
2023/12/10 03:37:47;;;;;;;21.50;3.33;;;8.10;99.90;;;;;;5052778;28;20040;-77
2023/12/10 03:40:12;;;;;;;15.30;2.72;;;8.00;99.90;;;;;;5044313;28;20038;-76
2023/12/10 03:42:38;;;;;;;15.73;1.90;;;8.00;99.90;;;;;;5044283;28;20045;-76
2023/12/10 03:45:04;;;;;;;18.42;2.38;;;8.00;99.90;;;;;;5054072;28;20372;-77
2023/12/10 03:47:30;;;;;;;14.93;2.00;;;8.00;99.90;;;;;;5047076;28;20049;-77
2023/12/10 03:49:56;;;;;;;16.35;2.65;;;8.00;99.90;;;;;;5049471;28;20144;-77
2023/12/10 03:52:22;;;;;;;11.75;1.95;;;8.00;99.90;;;;;;5060638;28;20082;-77
2023/12/10 03:54:47;;;;;;;9.30;1.95;;;7.90;99.90;;;;;;5067042;28;20470;-77
2023/12/10 03:57:13;;;;;;;12.38;1.88;;;8.00;99.90;;;;;;5047020;28;20129;-77
2023/12/10 03:59:39;;;;;;;14.15;3.08;;;7.90;99.90;;;;;;5045971;28;20056;-77
2023/12/10 04:02:04;;;;;;;7.82;2.28;;;7.90;99.90;;;;;;5061931;28;20048;-77
2023/12/10 04:04:30;;;;;;;10.15;2.00;;;7.90;99.90;;;;;;5048755;28;20049;-78
2023/12/10 04:06:56;;;;;;;13.15;2.40;;;7.90;99.90;;;;;;5056040;28;20087;-77
2023/12/10 04:09:22;;;;;;;15.27;2.60;;;7.90;99.90;;;;;;5051139;28;20037;-77
2023/12/10 04:11:48;;;;;;;16.33;2.42;;;7.90;99.90;;;;;;5053649;28;20052;-77
2023/12/10 04:14:13;;;;;;;14.80;2.78;;;7.90;99.90;;;;;;5047360;28;20396;-77
2023/12/10 04:16:39;;;;;;;14.93;1.80;;;7.90;99.90;;;;;;5045370;28;20041;-77
2023/12/10 04:19:05;;;;;;;15.23;2.00;;;7.90;99.90;;;;;;5047862;28;20051;-77
2023/12/10 04:21:31;;;;;;;16.75;2.20;;;7.90;99.90;;;;;;5044768;28;20033;-77
2023/12/10 04:23:57;;;;;;;11.05;2.60;;;7.80;99.90;;;;;;5051451;28;20086;-77
2023/12/10 04:26:23;;;;;;;11.15;2.50;;;7.80;99.90;;;;;;5048865;28;20040;-77
2023/12/10 04:28:49;;;;;;;13.00;2.17;;;7.90;99.90;;;;;;5034986;28;20167;-77
2023/12/10 04:31:15;;;;;;;16.10;2.55;;;7.80;99.90;;;;;;5037732;28;20120;-77
2023/12/10 04:33:44;;;;;;;20.60;2.20;;;7.80;99.90;;;;;;5048245;28;20066;-77
2023/12/10 04:36:13;;;;;;;14.95;2.40;;;7.80;99.90;;;;;;5048188;28;20052;-78
2023/12/10 04:38:40;;;;;;;12.15;1.80;;;7.80;99.90;;;;;;5047244;28;20053;-77
2023/12/10 04:41:05;;;;;;;13.27;2.10;;;7.80;99.90;;;;;;5046255;28;20091;-77
2023/12/10 04:43:31;;;;;;;9.63;1.75;;;7.90;99.90;;;;;;5049012;28;20040;-77
2023/12/10 04:45:58;;;;;;;9.63;1.80;;;7.80;99.90;;;;;;5042340;28;20045;-77
2023/12/10 04:48:24;;;;;;;14.37;2.63;;;7.90;99.90;;;;;;5032584;28;20514;-77
2023/12/10 04:50:50;;;;;;;17.40;3.13;;;7.80;99.90;;;;;;5047191;28;20051;-77
2023/12/10 04:53:16;;;;;;;11.60;2.00;;;7.90;99.90;;;;;;5049534;28;20037;-77
2023/12/10 04:55:42;;;;;;;16.48;2.28;;;7.90;99.90;;;;;;5048142;28;20048;-77
2023/12/10 04:58:08;;;;;;;13.40;3.37;;;7.90;99.90;;;;;;5040614;28;20036;-77
2023/12/10 05:00:34;;;;;;;13.25;2.00;;;7.90;99.90;;;;;;5050251;28;20057;-77
2023/12/10 05:03:00;;;;;;;9.38;1.55;;;7.90;99.90;;;;;;5043474;28;20132;-77
2023/12/10 05:05:25;;;;;;;8.20;1.95;;;7.90;99.90;;;;;;5043609;28;20044;-77
2023/12/10 05:07:51;;;;;;;13.32;1.90;;;7.90;99.90;;;;;;5046535;28;20056;-77
2023/12/10 05:10:17;;;;;;;15.32;3.03;;;7.90;99.90;;;;;;5052584;28;20531;-77
2023/12/10 05:12:42;;;;;;;9.98;2.38;;;7.90;99.90;;;;;;5047182;28;20040;-77
2023/12/10 05:15:09;;;;;;;10.30;2.13;;;7.90;99.90;;;;;;5045875;28;20041;-77
2023/12/10 05:17:34;;;;;;;11.50;2.13;;;8.00;99.90;;;;;;5044532;28;20068;-77
2023/12/10 05:20:00;;;;;;;12.05;2.05;;;8.00;99.90;;;;;;5050561;28;20456;-77
2023/12/10 05:22:26;;;;;;;15.63;3.55;;;8.00;99.90;;;;;;5046507;28;20469;-77
2023/12/10 05:24:51;;;;;;;18.15;2.55;;;8.00;99.90;;;;;;5045061;28;20040;-77
2023/12/10 05:27:17;;;;;;;12.45;2.72;;;8.00;99.90;;;;;;5044514;28;20045;-77
2023/12/10 05:29:43;;;;;;;15.27;3.55;;;8.00;99.90;;;;;;5039019;28;20052;-77
2023/12/10 05:32:08;;;;;;;13.95;2.55;;;8.00;99.90;;;;;;5050455;28;20081;-77
2023/12/10 05:34:34;;;;;;;16.13;2.50;;;8.00;99.90;;;;;;5043680;28;20054;-77
2023/12/10 05:37:00;;;;;;;15.38;2.05;;;8.10;99.90;;;;;;5053452;28;20048;-77
2023/12/10 05:39:26;;;;;;;13.18;2.17;;;8.10;99.90;;;;;;5040430;28;20041;-77
2023/12/10 05:41:51;;;;;;;16.75;2.95;;;8.10;99.90;;;;;;5052850;28;20106;-78
2023/12/10 05:44:17;;;;;;;14.88;2.85;;;8.10;99.90;;;;;;5042502;28;20033;-77
2023/12/10 05:46:44;;;;;;;13.48;2.88;;;8.10;99.90;;;;;;5040925;28;20053;-77
2023/12/10 05:49:10;;;;;;;11.07;2.10;;;8.10;99.90;;;;;;5041166;28;20087;-77
2023/12/10 05:51:36;;;;;;;12.48;2.17;;;8.10;99.90;;;;;;5043729;28;20076;-77
2023/12/10 05:54:02;;;;;;;13.93;2.15;;;8.10;99.90;;;;;;5047664;28;20113;-77
2023/12/10 05:56:28;;;;;;;8.27;1.67;;;8.10;99.90;;;;;;5047139;28;20045;-77
2023/12/10 05:58:53;;;;;;;13.75;2.35;;;8.10;99.90;;;;;;5044042;28;20052;-77
2023/12/10 06:01:19;;;;;;;12.95;1.95;;;8.20;99.90;;;;;;5058365;28;20056;-78
2023/12/10 06:03:45;;;;;;;13.07;2.40;;;8.20;99.90;;;;;;5047988;28;20052;-78
2023/12/10 06:06:11;;;;;;;13.38;2.88;;;8.20;99.90;;;;;;5047181;28;20055;-77
2023/12/10 06:08:36;;;;;;;13.38;2.08;;;8.20;99.90;;;;;;5044904;28;20044;-77
2023/12/10 06:11:02;;;;;;;11.48;2.15;;;8.20;99.90;;;;;;5046795;28;20041;-77
2023/12/10 06:13:28;;;;;;;14.10;2.45;;;8.10;99.90;;;;;;5043052;28;20041;-77
2023/12/10 06:15:57;;;;;;;11.27;1.98;;;8.20;99.90;;;;;;5039293;28;20064;-77
2023/12/10 06:18:23;;;;;;;12.52;2.08;;;8.10;99.90;;;;;;5054503;28;20053;-77
2023/12/10 06:20:49;;;;;;;11.45;2.50;;;8.20;99.90;;;;;;5045744;28;20041;-77
2023/12/10 06:23:15;;;;;;;11.73;2.13;;;8.10;99.90;;;;;;5041101;28;20438;-77
2023/12/10 06:25:41;;;;;;;9.75;2.15;;;8.20;99.90;;;;;;5042267;28;20184;-77
2023/12/10 06:28:06;;;;;;;15.40;2.38;;;8.20;99.90;;;;;;5040276;28;20061;-77
2023/12/10 06:30:32;;;;;;;11.85;2.22;;;8.20;99.90;;;;;;5042592;28;20079;-77
2023/12/10 06:32:58;;;;;;;11.23;2.17;;;8.20;99.90;;;;;;5043520;28;20044;-77
2023/12/10 06:35:23;;;;;;;17.25;2.30;;;8.20;99.90;;;;;;5043533;28;20045;-78
2023/12/10 06:37:49;;;;;;;12.48;2.17;;;8.20;99.90;;;;;;5036214;28;20046;-77
2023/12/10 06:40:15;;;;;;;11.90;2.22;;;8.20;99.90;;;;;;5048713;28;20118;-77
2023/12/10 06:42:41;;;;;;;10.27;2.65;;;8.20;99.90;;;;;;5044617;28;20049;-77
2023/12/10 06:45:07;;;;;;;19.65;2.80;;;8.20;99.90;;;;;;5041410;28;20040;-77
2023/12/10 06:47:33;;;;;;;13.88;2.55;;;8.20;99.90;;;;;;5046600;28;20687;-77
2023/12/10 06:49:59;;;;;;;13.40;2.20;;;8.20;99.90;;;;;;5038435;28;20041;-77
2023/12/10 06:52:25;;;;;;;14.75;2.53;;;8.20;99.90;;;;;;5043975;28;20519;-77
2023/12/10 06:54:51;;;;;;;13.45;2.15;;;8.20;99.90;;;;;;5046406;28;20041;-77
2023/12/10 06:57:17;;;;;;;17.60;2.53;;;8.20;99.90;;;;;;5046513;28;20045;-77
2023/12/10 06:59:43;;;;;;;20.35;3.80;;;8.20;99.90;;;;;;5047907;28;20106;-78
2023/12/10 07:02:09;;;;;;;17.52;3.50;;;8.20;99.90;;;;;;5053662;28;20049;-77
2023/12/10 07:04:35;;;;;;;19.67;2.53;;;8.20;99.90;;;;;;5050519;28;20496;-77
2023/12/10 07:07:01;;;;;;;14.35;2.60;;;8.20;99.90;;;;;;5045474;28;20044;-77
2023/12/10 07:09:27;;;;;;;21.38;2.72;;;8.20;99.90;;;;;;5048420;28;20033;-77
2023/12/10 07:11:53;;;;;;;19.33;3.05;;;8.20;99.90;;;;;;5047817;28;20127;-77
2023/12/10 07:14:19;;;;;;;14.65;2.55;;;8.20;99.90;;;;;;5047957;28;20454;-77
2023/12/10 07:16:44;;;;;;;17.35;2.60;;;8.20;99.90;;;;;;5041539;28;20136;-77
2023/12/10 07:19:10;;;;;;;14.70;2.60;;;8.20;99.90;;;;;;5042313;28;20047;-77
2023/12/10 07:21:36;;;;;;;14.40;2.33;;;8.20;99.90;;;;;;5047787;28;20072;-77
2023/12/10 07:24:01;;;;;;;15.15;2.03;;;8.10;99.90;;;;;;5049621;28;20106;-77
2023/12/10 07:26:27;;;;;;;20.33;3.65;;;8.10;99.90;;;;;;5047437;28;20053;-77
2023/12/10 07:28:53;;;;;;;16.80;2.35;;;8.20;99.90;;;;;;5044813;28;20396;-77
2023/12/10 07:31:19;;;;;;;15.02;2.53;;;8.10;99.90;;;;;;5045469;28;20098;-77
2023/12/10 07:33:44;;;;;;;12.30;2.33;;;8.10;99.90;;;;;;5044517;28;20053;-77
2023/12/10 07:36:11;;;;;;;13.70;2.55;;;8.10;99.90;;;;;;5048268;28;20060;-77
2023/12/10 07:38:37;;;;;;;12.82;2.38;;;8.10;99.90;;;;;;5047548;28;20584;-77
2023/12/10 07:41:04;;;;;;;10.27;2.63;;;8.20;99.90;;;;;;5043929;28;20126;-77
2023/12/10 07:43:33;;;;;;;16.63;3.20;;;8.10;99.90;;;;;;5047414;28;20427;-77
2023/12/10 07:45:59;;;;;;;9.25;1.73;;;8.10;99.90;;;;;;5050765;28;20526;-77
2023/12/10 07:48:25;;;;;;;14.43;2.40;;;8.10;99.90;;;;;;5043852;28;20057;-77
2023/12/10 07:50:51;;;;;;;8.63;1.70;;;8.10;99.90;;;;;;5045812;28;20049;-77
2023/12/10 07:53:17;;;;;;;15.95;2.65;;;8.10;99.90;;;;;;5045516;28;20041;-77
2023/12/10 07:55:43;;;;;;;11.18;2.25;;;8.10;99.90;;;;;;5047826;28;20538;-77
2023/12/10 07:58:09;;;;;;;13.48;1.63;;;8.10;99.90;;;;;;5048086;28;20375;-81
2023/12/10 08:00:35;;;;;;;14.75;2.15;;;8.10;99.90;;;;;;5047295;28;20055;-81
2023/12/10 08:03:01;;;;;;;12.75;1.95;;;8.10;99.90;;;;;;5039206;28;20076;-81
2023/12/10 08:05:27;;;;;;;6.38;1.33;;;8.00;99.90;;;;;;5070451;28;20045;-81
2023/12/10 08:07:53;;;;;;;8.60;1.70;;;8.10;99.90;;;;;;5043522;28;20148;-83
2023/12/10 08:10:19;;;;;;;11.15;1.75;;;8.10;99.90;;;;;;5047912;28;20037;-80
2023/12/10 08:12:44;;;;;;;8.88;1.25;;;8.00;99.90;;;;;;5046204;28;20625;-78
2023/12/10 08:15:10;;;;;;;10.95;2.45;;;8.00;99.90;;;;;;5054945;28;20052;-77
2023/12/10 08:17:36;;;;;;;12.52;2.03;;;8.10;99.90;;;;;;5041188;28;20044;-76
2023/12/10 08:20:04;;;;;;;11.73;1.60;;;8.00;99.90;;;;;;5045676;28;20160;-77
2023/12/10 08:22:30;;;;;;;10.10;1.92;;;8.00;99.90;;;;;;5048227;28;20049;-77
2023/12/10 08:24:56;;;;;;;8.23;2.95;;;8.00;99.90;;;;;;5038385;28;20144;-77
2023/12/10 08:27:21;;;;;;;12.93;1.77;;;8.00;99.90;;;;;;5050312;28;20477;-77
2023/12/10 08:29:47;;;;;;;10.63;1.58;;;8.00;99.90;;;;;;5048529;28;20052;-76
2023/12/10 08:32:13;;;;;;;12.32;2.20;;;8.10;99.90;;;;;;5035946;28;20179;-75
2023/12/10 08:34:38;;;;;;;9.10;1.40;;;8.10;99.90;;;;;;5047531;28;20396;-76
2023/12/10 08:37:05;;;;;;;2.85;1.25;;;8.00;99.90;;;;;;5046657;28;20073;-77
2023/12/10 08:39:31;;;;;;;8.23;1.85;;;8.00;99.90;;;;;;5045021;28;20132;-78
2023/12/10 08:41:56;;;;;;;9.88;1.60;;;8.00;99.90;;;;;;5048159;28;20503;-77
2023/12/10 08:44:22;;;;;;;11.05;1.60;;;8.00;99.90;;;;;;5045326;28;20057;-77
2023/12/10 08:46:48;;;;;;;14.10;2.13;;;8.00;99.90;;;;;;5038229;28;20056;-77
2023/12/10 08:49:13;;;;;;;14.82;1.60;;;8.00;99.90;;;;;;5054509;28;20048;-85
2023/12/10 08:51:39;;;;;;;16.38;2.33;;;8.00;99.90;;;;;;5051917;28;20048;-80
2023/12/10 08:54:05;;;;;;;11.85;2.17;;;8.00;99.90;;;;;;5043697;28;20049;-78
2023/12/10 08:56:31;;;;;;;15.70;3.10;;;8.00;99.90;;;;;;5037104;28;20056;-78
2023/12/10 08:58:57;;;;;;;17.40;3.47;;;8.00;99.90;;;;;;5033600;28;20484;-78
2023/12/10 09:01:22;;;;;;;21.55;3.30;;;8.00;99.90;;;;;;5045892;28;20047;-78
2023/12/10 09:03:48;;;;;;;18.38;3.05;;;8.10;99.90;;;;;;5033697;28;20135;-78
2023/12/10 09:06:14;;;;;;;20.73;3.63;;;8.00;99.90;;;;;;5036957;28;20052;-78
2023/12/10 09:08:40;;;;;;;22.95;3.65;;;8.10;99.90;;;;;;5038509;28;20056;-78
2023/12/10 09:11:05;;;;;;;21.58;3.53;;;8.10;99.90;;;;;;5041106;28;20473;-78
2023/12/10 09:13:37;;;;;;;19.85;3.60;;;8.10;99.90;;;;;;5030985;28;20053;-78
2023/12/10 09:16:03;;;;;;;14.50;2.92;;;8.10;99.90;;;;;;5029478;28;20038;-77
2023/12/10 09:18:29;;;;;;;12.48;3.78;;;8.00;99.90;;;;;;5040096;28;20048;-78
2023/12/10 09:20:55;;;;;;;21.52;2.95;;;8.10;99.90;;;;;;5035190;28;20046;-78
2023/12/10 09:23:21;;;;;;;22.67;3.85;;;8.10;99.90;;;;;;5041599;28;20131;-78
2023/12/10 09:25:47;;;;;;;22.20;3.17;;;8.00;99.90;;;;;;5040883;28;20437;-78
2023/12/10 09:28:13;;;;;;;25.45;4.00;;;8.00;99.90;;;;;;5034670;28;20045;-78
2023/12/10 09:30:39;;;;;;;17.00;4.05;;;8.00;99.90;;;;;;5036450;28;20056;-78
2023/12/10 09:33:05;;;;;;;25.70;3.55;;;8.00;99.90;;;;;;5046718;28;20037;-78
2023/12/10 09:35:31;;;;;;;19.13;3.45;;;8.00;99.90;;;;;;5045346;28;20703;-78
2023/12/10 09:37:57;;;;;;;18.77;3.58;;;8.00;99.90;;;;;;5042934;28;20047;-77
2023/12/10 09:40:23;;;;;;;14.52;3.25;;;8.00;99.90;;;;;;5047531;28;20049;-78
2023/12/10 09:42:48;;;;;;;28.42;3.88;;;8.00;99.90;;;;;;5046536;28;20048;-78
2023/12/10 09:45:14;;;;;;;24.30;2.83;;;8.10;99.90;;;;;;5064728;28;20047;-78
2023/12/10 09:47:43;;;;;;;21.88;3.25;;;8.10;99.90;;;;;;5047263;28;20041;-78
2023/12/10 09:50:08;;;;;;;27.63;3.67;;;8.20;99.90;;;;;;5035565;28;20047;-78
2023/12/10 09:52:34;;;;;;;16.90;3.20;;;8.20;99.90;;;;;;5045991;28;20140;-78
2023/12/10 09:55:00;;;;;;;25.45;3.30;;;8.20;99.90;;;;;;5028291;28;20088;-78
2023/12/10 09:57:28;;;;;;;24.35;4.63;;;8.30;99.90;;;;;;5045271;28;20148;-78
2023/12/10 09:59:53;;;;;;;17.08;3.35;;;8.30;99.90;;;;;;5045026;28;20061;-78
2023/12/10 10:02:19;;;;;;;25.30;4.05;;;8.30;99.90;;;;;;5038651;28;20067;-77
2023/12/10 10:04:46;;;;;;;17.38;3.50;;;8.30;99.90;;;;;;5038294;28;20099;-79
2023/12/10 10:07:13;;;;;;;16.80;2.63;;;8.40;99.90;;;;;;5041882;28;20053;-78
2023/12/10 10:09:40;;;;;;;19.45;3.40;;;8.30;99.90;;;;;;5046804;28;20694;-79
2023/12/10 10:12:07;;;;;;;15.43;3.15;;;8.40;99.90;;;;;;5045006;28;20096;-78
2023/12/10 10:14:33;;;;;;;23.98;4.15;;;8.30;99.90;;;;;;5039563;28;20511;-78
2023/12/10 10:16:59;;;;;;;25.05;3.50;;;8.30;99.90;;;;;;5035076;28;20045;-78
2023/12/10 10:19:25;;;;;;;24.90;3.15;;;8.30;99.90;;;;;;5038193;28;20389;-79
2023/12/10 10:21:51;;;;;;;15.82;3.10;;;8.30;99.90;;;;;;5040829;28;20036;-80
2023/12/10 10:24:17;;;;;;;24.58;4.15;;;8.30;99.90;;;;;;5044641;28;20132;-81
2023/12/10 10:26:43;;;;;;;27.50;4.18;;;8.40;99.90;;;;;;5045783;28;20494;-79
2023/12/10 10:29:09;;;;;;;29.83;4.45;;;8.40;99.90;;;;;;5039123;28;20090;-83
2023/12/10 10:31:35;;;;;;;27.05;4.78;;;8.40;99.90;;;;;;5039303;28;20052;-81
2023/12/10 10:34:05;;;;;;;23.05;3.42;;;8.50;99.90;;;;;;5038448;28;20454;-81
2023/12/10 10:36:31;;;;;;;22.92;3.08;;;8.50;99.90;;;;;;5048096;28;20045;-85
2023/12/10 10:38:58;;;;;;;24.77;3.38;;;8.50;99.90;;;;;;5047370;28;20085;-80
2023/12/10 10:41:24;;;;;;;23.17;3.80;;;8.50;99.90;;;;;;5041199;28;20493;-81
2023/12/10 10:43:50;;;;;;;22.15;3.78;;;8.60;99.90;;;;;;5041126;28;20064;-81
2023/12/10 10:46:20;;;;;;;25.15;4.53;;;8.60;99.90;;;;;;5048084;28;20061;-81
2023/12/10 10:48:51;;;;;;;20.17;2.90;;;8.60;99.90;;;;;;5038986;28;20496;-81
2023/12/10 10:51:24;;;;;;;22.05;3.15;;;8.60;99.90;;;;;;5046511;28;20120;-81
2023/12/10 10:53:53;;;;;;;23.17;3.33;;;8.60;99.90;;;;;;5071119;28;20056;-79
2023/12/10 10:56:19;;;;;;;21.90;4.25;;;8.60;99.90;;;;;;5049221;28;20372;-80
2023/12/10 10:58:45;;;;;;;25.52;3.83;;;8.60;99.90;;;;;;5042750;28;20093;-80
2023/12/10 11:01:41;;;;;;;22.70;3.65;;;8.60;99.90;;;;;;5039637;28;20438;-78
2023/12/10 11:04:16;;;;;;;16.30;2.55;;;8.60;99.90;;;;;;5044096;28;20049;-83
2023/12/10 11:06:45;;;;;;;26.40;3.60;;;8.50;99.90;;;;;;5047472;28;20052;-82
2023/12/10 11:09:11;;;;;;;19.95;3.85;;;8.50;99.90;;;;;;5045375;28;20128;-84
2023/12/10 11:11:39;;;;;;;23.73;2.90;;;8.50;99.90;;;;;;5051032;28;20132;-84
2023/12/10 11:14:22;;;;;;;17.27;2.88;;;8.50;99.90;;;;;;5051317;28;20053;-80
2023/12/10 11:16:50;;;;;;;18.77;2.42;;;8.50;99.90;;;;;;5045766;28;20045;-85
2023/12/10 11:19:18;;;;;;;18.95;2.95;;;8.60;99.90;;;;;;5045124;28;20106;-80
2023/12/10 11:21:44;;;;;;;25.40;3.10;;;8.60;99.90;;;;;;5046556;28;20463;-80
2023/12/10 11:24:09;;;;;;;23.60;3.97;;;8.60;99.90;;;;;;5048841;28;20068;-81
2023/12/10 11:26:35;;;;;;;19.92;3.38;;;8.70;99.90;;;;;;5046257;28;20075;-77
2023/12/10 11:29:04;;;;;;;23.00;3.63;;;8.70;99.90;;;;;;5051672;28;20049;-80
2023/12/10 11:31:29;;;;;;;17.63;3.70;;;8.70;99.90;;;;;;5045558;28;20180;-76
2023/12/10 11:33:55;;;;;;;15.38;2.97;;;8.70;99.90;;;;;;5047008;28;20121;-78
2023/12/10 11:36:21;;;;;;;32.42;4.22;;;8.80;99.90;;;;;;5051183;28;20115;-81
2023/12/10 11:38:47;;;;;;;20.33;3.72;;;8.80;99.90;;;;;;5041265;28;20053;-79
2023/12/10 11:41:13;;;;;;;20.63;3.00;;;8.90;99.90;;;;;;5035628;28;20044;-82
2023/12/10 11:43:41;;;;;;;21.60;3.25;;;8.90;99.90;;;;;;5048836;28;20048;-82
2023/12/10 11:46:07;;;;;;;20.65;3.20;;;8.90;99.90;;;;;;5033609;28;20493;-81
2023/12/10 11:48:33;;;;;;;21.05;3.30;;;9.00;99.90;;;;;;5046239;28;20069;-86
2023/12/10 11:51:00;;;;;;;15.25;3.00;;;9.00;99.90;;;;;;5037395;28;20072;-81
2023/12/10 11:53:25;;;;;;;18.23;3.45;;;9.10;99.90;;;;;;5045367;28;20179;-89
2023/12/10 11:55:52;;;;;;;18.27;2.97;;;9.10;99.90;;;;;;5037489;28;20057;-88
2023/12/10 11:58:28;;;;;;;17.35;3.47;;;9.10;99.90;;;;;;5038077;28;20061;-80
2023/12/10 12:00:58;;;;;;;19.92;2.38;;;9.20;99.90;;;;;;5045445;28;20076;-79
2023/12/10 12:03:24;;;;;;;15.40;2.47;;;9.20;99.90;;;;;;5048578;28;20045;-81
2023/12/10 12:05:53;;;;;;;26.67;3.83;;;9.20;99.90;;;;;;5054952;28;20084;-80
2023/12/10 12:08:20;;;;;;;18.88;4.25;;;9.20;99.90;;;;;;5046472;28;20366;-82
2023/12/10 12:10:49;;;;;;;19.60;3.40;;;9.20;99.90;;;;;;5049426;28;20396;-85
2023/12/10 12:13:16;;;;;;;16.25;3.15;;;9.10;99.90;;;;;;5037246;28;20576;-81
2023/12/10 12:15:49;;;;;;;21.45;3.15;;;9.10;99.90;;;;;;5043259;28;20052;-81
2023/12/10 12:18:15;;;;;;;18.00;2.60;;;9.10;99.90;;;;;;5029516;28;20124;-82
2023/12/10 12:20:41;;;;;;;19.45;3.28;;;9.00;99.90;;;;;;5039949;28;20148;-82
2023/12/10 12:23:07;;;;;;;18.98;2.53;;;9.00;99.90;;;;;;5051036;28;20047;-90
2023/12/10 12:25:37;;;;;;;17.95;3.38;;;9.00;99.90;;;;;;5049046;28;20468;-80
2023/12/10 12:28:07;;;;;;;14.02;2.38;;;9.00;99.90;;;;;;5041648;28;20049;-80
2023/12/10 12:30:34;;;;;;;17.52;3.20;;;9.00;99.90;;;;;;5043399;28;20041;-80
2023/12/10 12:33:00;;;;;;;12.68;2.63;;;9.00;99.90;;;;;;5042225;28;20072;-78
2023/12/10 12:35:26;;;;;;;24.08;3.65;;;9.00;99.90;;;;;;5044781;28;20277;-80
2023/12/10 12:37:52;;;;;;;22.48;3.25;;;9.00;99.90;;;;;;5033343;28;20049;-82
2023/12/10 12:40:20;;;;;;;17.17;3.00;;;9.00;99.90;;;;;;5038587;28;20048;-80
2023/12/10 12:42:46;;;;;;;14.35;2.35;;;9.10;99.90;;;;;;5040132;28;20456;-80